createdAt,value
2018-04-10T00:00:15.809Z,13.77
2018-04-10T00:02:43.406Z,17.30
2018-04-10T00:05:10.999Z,15.80
2018-04-10T00:07:38.618Z,15.87
2018-04-10T00:10:06.966Z,18.60
2018-04-10T00:12:34.559Z,14.60
2018-04-10T00:15:02.180Z,15.10
2018-04-10T00:17:29.767Z,16.20
2018-04-10T00:19:58.155Z,16.00
2018-04-10T00:22:25.774Z,21.67
2018-04-10T00:24:53.371Z,15.50
2018-04-10T00:27:21.735Z,16.00
2018-04-10T00:29:50.127Z,17.33
2018-04-10T00:32:18.479Z,16.30
2018-04-10T00:34:46.079Z,15.57
2018-04-10T00:37:13.709Z,12.67
2018-04-10T00:39:42.076Z,12.73
2018-04-10T00:42:09.670Z,18.70
2018-04-10T00:44:37.293Z,13.20
2018-04-10T00:47:04.888Z,13.07
2018-04-10T00:49:33.243Z,12.23
2018-04-10T00:52:00.878Z,12.83
2018-04-10T00:54:28.466Z,13.80
2018-04-10T00:56:56.055Z,15.60
2018-04-10T00:59:23.670Z,14.33
2018-04-10T01:01:51.263Z,14.77
2018-04-10T01:04:19.698Z,13.20
2018-04-10T01:06:47.313Z,13.70
2018-04-10T01:09:14.904Z,15.23
2018-04-10T01:11:42.499Z,14.67
2018-04-10T01:14:10.112Z,14.77
2018-04-10T01:16:37.715Z,16.50
2018-04-10T01:19:05.314Z,16.90
2018-04-10T01:21:32.928Z,17.33
2018-04-10T01:24:00.530Z,13.47
2018-04-10T01:26:28.883Z,12.80
2018-04-10T01:28:56.502Z,12.03
2018-04-10T01:31:24.093Z,13.90
2018-04-10T01:33:51.691Z,13.77
2018-04-10T01:36:20.113Z,12.70
2018-04-10T01:38:47.714Z,14.13
2018-04-10T01:41:16.068Z,12.20
2018-04-10T01:43:43.704Z,18.30
2018-04-10T01:46:11.305Z,13.70
2018-04-10T01:48:42.143Z,14.80
2018-04-10T01:51:09.765Z,13.47
2018-04-10T01:53:37.356Z,13.63
2018-04-10T01:56:04.944Z,11.70
2018-04-10T01:58:33.333Z,12.53
2018-04-10T02:01:00.927Z,14.20
2018-04-10T02:03:28.515Z,13.40
2018-04-10T02:05:56.142Z,13.07
2018-04-10T02:08:23.739Z,13.23
2018-04-10T02:25:05.388Z,12.43
2018-04-10T02:27:33.004Z,13.83
2018-04-10T02:30:01.363Z,12.30
2018-04-10T02:32:28.953Z,16.40
2018-04-10T02:34:56.584Z,13.80
2018-04-10T02:37:24.179Z,13.00
2018-04-10T02:39:51.871Z,12.20
2018-04-10T02:42:20.294Z,15.00
2018-04-10T02:44:48.647Z,12.20
2018-04-10T02:47:16.265Z,15.90
2018-04-10T02:49:43.882Z,13.10
2018-04-10T02:52:11.479Z,16.20
2018-04-10T02:54:39.064Z,14.47
2018-04-10T02:57:06.711Z,14.30
2018-04-10T02:59:34.330Z,13.70
2018-04-10T03:02:01.924Z,12.90
2018-04-10T03:04:29.555Z,14.57
2018-04-10T03:06:57.914Z,13.90
2018-04-10T03:09:25.512Z,15.43
2018-04-10T03:11:53.909Z,15.53
2018-04-10T03:14:21.502Z,14.40
2018-04-10T03:16:49.100Z,13.00
2018-04-10T03:19:17.483Z,13.50
2018-04-10T03:21:46.791Z,11.07
2018-04-10T03:24:14.383Z,13.80
2018-04-10T03:26:42.038Z,14.30
2018-04-10T03:29:09.631Z,14.27
2018-04-10T03:31:37.236Z,12.10
2018-04-10T03:34:04.868Z,12.43
2018-04-10T03:36:33.234Z,14.40
2018-04-10T03:39:00.838Z,14.70
2018-04-10T03:41:28.458Z,15.13
2018-04-10T03:43:56.066Z,13.97
2018-04-10T03:46:23.671Z,18.60
2018-04-10T03:48:51.294Z,18.90
2018-04-10T03:51:18.898Z,13.47
2018-04-10T03:53:46.510Z,15.03
2018-04-10T03:56:14.132Z,17.23
2018-04-10T03:58:41.722Z,16.77
2018-04-10T04:01:09.331Z,13.70
2018-04-10T04:03:37.721Z,13.10
2018-04-10T04:06:05.317Z,14.57
2018-04-10T04:08:32.926Z,12.03
2018-04-10T04:11:00.557Z,13.03
2018-04-10T04:13:28.152Z,14.90
2018-04-10T04:15:55.752Z,14.30
2018-04-10T04:18:35.169Z,16.20
2018-04-10T04:21:14.666Z,14.93
2018-04-10T04:23:42.280Z,12.63
2018-04-10T04:26:10.639Z,12.90
2018-04-10T04:28:38.231Z,14.00
2018-04-10T04:31:05.847Z,11.63
2018-04-10T04:33:33.430Z,12.40
2018-04-10T04:36:01.787Z,12.20
2018-04-10T04:38:29.408Z,11.73
2018-04-10T04:41:03.391Z,10.97
2018-04-10T04:43:31.774Z,12.33
2018-04-10T04:46:00.186Z,12.60
2018-04-10T04:48:27.782Z,13.30
2018-04-10T04:50:55.391Z,11.43
2018-04-10T04:53:22.977Z,11.67
2018-04-10T04:55:50.562Z,11.03
2018-04-10T04:58:18.941Z,12.70
2018-04-10T05:00:46.523Z,14.43
2018-04-10T05:03:14.876Z,15.87
2018-04-10T05:05:42.494Z,12.70
2018-04-10T05:08:10.088Z,12.93
2018-04-10T05:10:37.700Z,12.43
2018-04-10T05:13:05.367Z,11.93
2018-04-10T05:15:32.977Z,12.83
2018-04-10T05:18:00.590Z,14.03
2018-04-10T05:20:28.203Z,11.97
2018-04-10T05:22:55.852Z,10.77
2018-04-10T05:25:23.438Z,15.33
2018-04-10T05:27:51.854Z,15.33
2018-04-10T05:30:19.459Z,12.37
2018-04-10T05:32:47.044Z,13.03
2018-04-10T05:35:15.475Z,18.53
2018-04-10T05:37:43.063Z,15.87
2018-04-10T05:40:10.659Z,18.40
2018-04-10T05:42:38.292Z,19.20
2018-04-10T05:45:05.894Z,15.10
2018-04-10T05:47:33.503Z,16.67
2018-04-10T05:50:01.151Z,17.03
2018-04-10T05:52:28.771Z,22.63
2018-04-10T05:54:56.364Z,21.50
2018-04-10T05:57:23.981Z,22.53
2018-04-10T05:59:52.354Z,20.47
2018-04-10T06:02:20.714Z,19.87
2018-04-10T06:04:48.335Z,16.83
2018-04-10T06:07:16.695Z,21.73
2018-04-10T06:09:44.304Z,20.33
2018-04-10T06:12:12.199Z,21.03
2018-04-10T06:14:40.547Z,22.60
2018-04-10T06:17:08.139Z,20.67
2018-04-10T06:19:36.542Z,18.00
2018-04-10T06:22:04.130Z,18.53
2018-04-10T06:24:31.718Z,20.90
2018-04-10T06:26:59.392Z,17.57
2018-04-10T06:29:27.763Z,18.00
2018-04-10T06:31:56.140Z,20.47
2018-04-10T06:34:24.535Z,20.73
2018-04-10T06:36:52.929Z,28.93
2018-04-10T06:39:20.536Z,21.90
2018-04-10T06:41:48.152Z,17.10
2018-04-10T06:44:15.744Z,15.70
2018-04-10T06:46:43.347Z,16.73
2018-04-10T06:49:11.749Z,15.20
2018-04-10T06:51:39.347Z,13.97
2018-04-10T06:54:06.963Z,16.37
2018-04-10T06:56:34.598Z,13.50
2018-04-10T06:59:02.191Z,13.53
2018-04-10T07:01:29.787Z,15.70
2018-04-10T07:03:57.438Z,17.17
2018-04-10T07:06:25.031Z,13.73
2018-04-10T07:08:52.636Z,17.27
2018-04-10T07:11:20.257Z,13.03
2018-04-10T07:14:01.802Z,14.90
2018-04-10T07:16:29.419Z,17.83
2018-04-10T07:18:57.781Z,13.27
2018-04-10T07:21:25.384Z,12.03
2018-04-10T07:23:53.001Z,11.60
2018-04-10T07:26:20.601Z,12.27
2018-04-10T07:28:48.201Z,14.43
2018-04-10T07:31:15.866Z,11.33
2018-04-10T07:33:43.491Z,13.37
2018-04-10T07:36:11.146Z,15.73
2018-04-10T07:38:38.767Z,12.93
2018-04-10T07:41:06.365Z,12.10
2018-04-10T07:43:33.964Z,10.20
2018-04-10T07:46:01.607Z,10.63
2018-04-10T07:48:29.938Z,14.57
2018-04-10T07:50:57.552Z,12.87
2018-04-10T07:53:25.174Z,10.20
2018-04-10T07:55:52.772Z,10.10
2018-04-10T07:58:20.362Z,10.30
2018-04-10T08:00:48.018Z,10.23
2018-04-10T08:03:15.628Z,9.70
2018-04-10T08:05:43.218Z,10.30
2018-04-10T08:08:10.828Z,8.53
2018-04-10T08:10:59.128Z,10.47
2018-04-10T08:13:26.777Z,12.13
2018-04-10T08:15:54.365Z,11.70
2018-04-10T08:18:21.991Z,11.43
2018-04-10T08:20:49.630Z,12.13
2018-04-10T08:23:17.293Z,12.43
2018-04-10T08:25:44.916Z,11.03
2018-04-10T08:28:12.544Z,17.43
2018-04-10T08:30:40.136Z,14.97
2018-04-10T08:33:07.737Z,15.50
2018-04-10T08:35:35.356Z,15.87
2018-04-10T08:38:02.955Z,10.97
2018-04-10T08:40:30.678Z,11.00
2018-04-10T08:42:58.364Z,11.17
2018-04-10T08:45:26.725Z,12.67
2018-04-10T08:47:54.321Z,10.97
2018-04-10T08:50:21.967Z,11.53
2018-04-10T08:52:50.342Z,9.80
2018-04-10T08:55:17.952Z,9.37
2018-04-10T08:57:45.563Z,9.53
2018-04-10T09:00:13.927Z,9.17
2018-04-10T09:02:47.203Z,8.67
2018-04-10T09:05:14.794Z,6.20
2018-04-10T09:07:43.165Z,7.83
2018-04-10T09:10:11.553Z,8.70
2018-04-10T09:12:39.909Z,9.60
2018-04-10T09:15:07.504Z,7.23
2018-04-10T09:17:35.132Z,6.90
2018-04-10T09:20:02.720Z,7.07
2018-04-10T09:22:30.319Z,8.47
2018-04-10T09:24:57.928Z,7.10
2018-04-10T09:27:26.288Z,8.97
2018-04-10T09:29:53.881Z,7.60
2018-04-10T09:32:21.498Z,8.27
2018-04-10T09:34:49.089Z,9.27
2018-04-10T09:37:17.467Z,9.47
2018-04-10T09:39:45.860Z,7.83
2018-04-10T09:42:13.457Z,8.40
2018-04-10T09:44:41.055Z,7.03
2018-04-10T09:47:08.672Z,7.00
2018-04-10T09:49:36.267Z,7.23
2018-04-10T09:52:03.861Z,7.87
2018-04-10T09:54:31.483Z,7.40
2018-04-10T09:56:59.075Z,9.27
2018-04-10T09:59:27.420Z,11.60
2018-04-10T10:01:55.036Z,7.40
2018-04-10T10:04:22.624Z,7.83
2018-04-10T10:06:51.848Z,6.33
2018-04-10T10:09:19.470Z,6.20
2018-04-10T10:11:47.077Z,8.67
2018-04-10T10:14:15.462Z,6.80
2018-04-10T10:16:43.887Z,6.33
2018-04-10T10:19:11.468Z,9.13
2018-04-10T10:21:39.064Z,6.23
2018-04-10T10:24:07.474Z,4.80
2018-04-10T10:26:35.063Z,7.20
2018-04-10T10:29:02.675Z,6.00
2018-04-10T10:31:31.057Z,5.30
2018-04-10T10:33:58.779Z,5.83
2018-04-10T10:36:26.369Z,6.00
2018-04-10T10:38:54.755Z,4.17
2018-04-10T10:41:22.450Z,4.80
2018-04-10T10:43:50.037Z,5.23
2018-04-10T10:46:17.654Z,4.87
2018-04-10T10:48:45.246Z,5.67
2018-04-10T10:51:13.599Z,5.13
2018-04-10T10:53:41.207Z,4.43
2018-04-10T10:56:08.791Z,4.93
2018-04-10T10:58:36.373Z,5.30
2018-04-10T11:01:04.030Z,5.00
2018-04-10T11:03:31.621Z,6.23
2018-04-10T11:05:59.999Z,6.13
2018-04-10T11:08:27.602Z,7.30
2018-04-10T11:10:55.960Z,7.93
2018-04-10T11:13:23.586Z,8.30
2018-04-10T11:15:51.210Z,9.33
2018-04-10T11:18:19.588Z,9.20
2018-04-10T11:20:48.885Z,9.17
2018-04-10T11:23:17.268Z,8.90
2018-04-10T11:25:44.874Z,8.00
2018-04-10T11:28:18.217Z,8.43
2018-04-10T11:30:45.871Z,8.70
2018-04-10T11:33:24.115Z,8.10
2018-04-10T11:35:51.697Z,9.27
2018-04-10T11:38:19.309Z,9.53
2018-04-10T11:40:47.688Z,8.83
2018-04-10T11:43:16.041Z,9.93
2018-04-10T11:45:43.649Z,13.23
2018-04-10T11:48:11.259Z,13.50
2018-04-10T11:50:38.853Z,9.90
2018-04-10T11:53:06.478Z,11.87
2018-04-10T11:55:34.123Z,11.43
2018-04-10T11:58:01.708Z,11.57
2018-04-10T12:00:29.296Z,13.40
2018-04-10T12:02:57.676Z,9.83
2018-04-10T12:05:26.035Z,10.20
2018-04-10T12:07:53.620Z,10.43
2018-04-10T12:10:21.234Z,13.30
2018-04-10T12:12:48.836Z,12.90
2018-04-10T12:15:17.201Z,12.80
2018-04-10T12:17:45.634Z,11.83
2018-04-10T12:20:13.246Z,11.23
2018-04-10T12:22:41.616Z,9.90
2018-04-10T12:25:10.012Z,10.27
2018-04-10T12:27:37.611Z,14.70
2018-04-10T12:30:05.208Z,11.43
2018-04-10T12:32:32.832Z,10.93
2018-04-10T12:35:00.492Z,14.13
2018-04-10T12:37:28.075Z,11.07
2018-04-10T12:39:55.694Z,20.57
2018-04-10T12:42:23.308Z,12.50
2018-04-10T12:44:50.916Z,13.50
2018-04-10T12:47:18.538Z,13.63
2018-04-10T12:49:46.954Z,19.63
2018-04-10T12:52:14.573Z,9.80
2018-04-10T12:54:43.092Z,10.80
2018-04-10T12:57:10.851Z,8.13
2018-04-10T12:59:38.707Z,9.37
2018-04-10T13:02:07.115Z,11.33
2018-04-10T13:04:34.715Z,10.57
2018-04-10T13:07:02.330Z,10.60
2018-04-10T13:09:29.980Z,10.10
2018-04-10T13:11:57.566Z,9.90
2018-04-10T13:14:25.155Z,10.77
2018-04-10T13:16:52.763Z,9.60
2018-04-10T13:19:20.366Z,10.23
2018-04-10T13:21:47.953Z,14.10
2018-04-10T13:24:16.338Z,12.40
2018-04-10T13:26:44.697Z,9.23
2018-04-10T13:29:13.078Z,11.60
2018-04-10T13:31:40.699Z,9.40
2018-04-10T13:34:08.291Z,10.43
2018-04-10T13:36:35.884Z,10.20
2018-04-10T13:39:04.285Z,10.33
2018-04-10T13:41:31.885Z,10.93
2018-04-10T13:43:59.637Z,9.60
2018-04-10T13:46:27.250Z,8.40
2018-04-10T13:48:55.604Z,8.50
2018-04-10T13:51:23.198Z,8.70
2018-04-10T13:53:50.808Z,9.23
2018-04-10T13:56:18.400Z,11.97
2018-04-10T13:58:46.747Z,10.07
2018-04-10T14:01:14.423Z,9.57
2018-04-10T14:03:42.043Z,9.40
2018-04-10T14:06:10.568Z,9.07
2018-04-10T14:08:38.184Z,7.87
2018-04-10T14:11:05.776Z,8.40
2018-04-10T14:13:33.371Z,9.47
2018-04-10T14:16:00.990Z,7.90
2018-04-10T14:18:28.624Z,9.50
2018-04-10T14:20:56.218Z,7.47
2018-04-10T14:23:23.827Z,8.00
2018-04-10T14:25:51.433Z,11.30
2018-04-10T14:28:19.035Z,9.00
2018-04-10T14:30:47.422Z,7.77
2018-04-10T14:33:15.026Z,8.50
2018-04-10T14:35:42.618Z,8.80
2018-04-10T14:38:10.999Z,9.63
2018-04-10T14:40:39.347Z,11.27
2018-04-10T14:43:06.935Z,9.33
2018-04-10T14:45:35.366Z,9.20
2018-04-10T14:48:03.001Z,10.30
2018-04-10T14:50:30.640Z,11.17
2018-04-10T14:52:59.051Z,11.53
2018-04-10T14:55:26.631Z,8.70
2018-04-10T14:57:54.212Z,13.33
2018-04-10T15:00:21.846Z,6.87
2018-04-10T15:02:49.451Z,11.43
2018-04-10T15:05:17.106Z,9.57
2018-04-10T15:07:44.715Z,5.13
2018-04-10T15:10:12.323Z,3.93
2018-04-10T15:12:46.669Z,11.30
2018-04-10T15:15:15.018Z,12.37
2018-04-10T15:17:42.613Z,7.93
2018-04-10T15:20:10.223Z,7.50
2018-04-10T15:22:37.803Z,2.90
2018-04-10T15:25:05.395Z,7.13
2018-04-10T15:27:33.002Z,4.93
2018-04-10T15:30:00.588Z,10.00
2018-04-10T15:32:29.712Z,2.70
2018-04-10T15:34:57.329Z,4.70
2018-04-10T15:37:24.911Z,4.60
2018-04-10T15:39:53.268Z,7.17
2018-04-10T15:42:20.891Z,6.03
2018-04-10T15:44:48.482Z,4.20
2018-04-10T15:47:16.062Z,2.47
2018-04-10T15:49:43.683Z,1.40
2018-04-10T15:52:11.269Z,4.23
2018-04-10T15:54:38.859Z,4.33
2018-04-10T15:57:07.248Z,1.83
2018-04-10T15:59:34.851Z,2.50
2018-04-10T16:02:02.469Z,2.70
2018-04-10T16:04:30.090Z,2.00
2018-04-10T16:06:57.694Z,1.60
2018-04-10T16:09:26.049Z,5.07
2018-04-10T16:11:54.434Z,2.60
2018-04-10T16:14:22.366Z,1.47
2018-04-10T16:16:49.946Z,1.63
2018-04-10T16:19:17.836Z,5.50
2018-04-10T16:21:46.184Z,5.73
2018-04-10T16:24:13.796Z,4.30
2018-04-10T16:26:45.139Z,2.80
2018-04-10T16:29:12.731Z,4.10
2018-04-10T16:31:40.308Z,3.13
2018-04-10T16:34:20.860Z,1.73
2018-04-10T16:36:49.220Z,1.57
2018-04-10T16:39:16.843Z,2.40
2018-04-10T16:41:45.244Z,11.60
2018-04-10T16:44:12.871Z,2.07
2018-04-10T16:46:41.227Z,1.93
2018-04-10T16:49:08.857Z,3.37
2018-04-10T16:51:36.448Z,4.53
2018-04-10T16:54:10.782Z,3.43
2018-04-10T16:56:40.198Z,5.53
2018-04-10T16:59:08.546Z,10.57
2018-04-10T17:01:36.908Z,7.53
2018-04-10T17:04:04.602Z,6.90
2018-04-10T17:06:32.192Z,8.33
2018-04-10T17:08:59.804Z,5.97
2018-04-10T17:11:33.800Z,7.43
2018-04-10T17:14:01.446Z,6.80
2018-04-10T17:16:29.043Z,7.40
2018-04-10T17:18:56.628Z,6.90
2018-04-10T17:21:25.005Z,8.50
2018-04-10T17:23:56.627Z,5.53
2018-04-10T17:26:24.228Z,4.73
2018-04-10T17:28:52.620Z,5.63
2018-04-10T17:31:20.325Z,5.90
2018-04-10T17:33:48.970Z,4.53
2018-04-10T17:36:17.686Z,5.43
2018-04-10T17:38:45.335Z,4.00
2018-04-10T17:41:16.245Z,1.90
2018-04-10T17:43:43.848Z,2.50
2018-04-10T17:46:11.431Z,3.53
2018-04-10T17:48:44.895Z,3.27
2018-04-10T17:51:12.470Z,2.37
2018-04-10T17:53:40.050Z,3.00
2018-04-10T17:56:13.386Z,3.53
2018-04-10T17:58:42.028Z,3.20
2018-04-10T18:01:09.824Z,6.47
2018-04-10T18:03:37.550Z,3.23
2018-04-10T18:06:08.742Z,3.67
2018-04-10T18:08:36.447Z,3.43
2018-04-10T18:11:04.184Z,3.40
2018-04-10T18:13:31.767Z,3.40
2018-04-10T18:16:00.140Z,4.33
2018-04-10T18:18:32.809Z,4.27
2018-04-10T18:21:00.418Z,3.53
2018-04-10T18:23:35.731Z,2.27
2018-04-10T18:26:03.318Z,5.03
2018-04-10T18:28:31.664Z,2.40
2018-04-10T18:30:59.296Z,2.13
2018-04-10T18:33:46.607Z,2.17
2018-04-10T18:36:15.048Z,5.43
2018-04-10T18:38:42.720Z,1.60
2018-04-10T18:41:11.140Z,4.00
2018-04-10T18:43:38.755Z,3.27
2018-04-10T18:46:09.699Z,1.40
2018-04-10T18:48:39.276Z,3.63
2018-04-10T18:51:06.965Z,2.20
2018-04-10T18:53:35.120Z,1.67
2018-04-10T18:56:02.737Z,2.00
2018-04-10T18:58:30.370Z,2.00
2018-04-10T19:00:58.723Z,5.30
2018-04-10T19:03:26.354Z,1.40
2018-04-10T19:05:53.944Z,1.30
2018-04-10T19:08:21.549Z,1.83
2018-04-10T19:10:50.155Z,2.10
2018-04-10T19:13:17.795Z,1.50
2018-04-10T19:15:45.416Z,1.50
2018-04-10T19:18:13.088Z,1.30
2018-04-10T19:20:41.477Z,2.93
2018-04-10T19:23:09.846Z,1.40
2018-04-10T19:25:38.244Z,1.10
2018-04-10T19:28:05.891Z,1.17
2018-04-10T19:30:34.254Z,1.43
2018-04-10T19:33:01.887Z,2.33
2018-04-10T19:35:29.467Z,1.63
2018-04-10T19:37:57.067Z,1.50
2018-04-10T19:40:24.675Z,1.70
2018-04-10T19:42:52.256Z,4.47
2018-04-10T19:45:19.895Z,1.73
2018-04-10T19:47:48.295Z,2.87
2018-04-10T19:50:15.918Z,1.60
2018-04-10T19:52:43.526Z,1.80
2018-04-10T19:55:11.199Z,2.40
2018-04-10T19:57:43.770Z,2.33
2018-04-10T20:00:12.174Z,1.57
2018-04-10T20:02:39.767Z,3.17
2018-04-10T20:05:08.131Z,3.13
2018-04-10T20:07:35.761Z,5.90
2018-04-10T20:10:04.115Z,1.90
2018-04-10T20:12:31.693Z,1.90
2018-04-10T20:15:00.119Z,2.03
2018-04-10T20:17:27.733Z,3.70
2018-04-10T20:19:56.141Z,3.60
2018-04-10T20:22:23.774Z,4.63
2018-04-10T20:24:52.152Z,3.83
2018-04-10T20:27:20.561Z,3.30
2018-04-10T20:29:48.195Z,4.37
2018-04-10T20:32:16.557Z,3.47
2018-04-10T20:34:44.963Z,4.30
2018-04-10T20:37:12.619Z,3.70
2018-04-10T20:39:40.958Z,3.10
2018-04-10T20:42:08.583Z,3.60
2018-04-10T20:44:36.188Z,2.90
2018-04-10T20:47:04.750Z,4.50
2018-04-10T20:49:32.365Z,2.70
2018-04-10T20:51:59.995Z,3.43
2018-04-10T20:54:32.747Z,2.60
2018-04-10T20:57:00.370Z,2.93
2018-04-10T20:59:27.997Z,2.43
2018-04-10T21:01:55.612Z,3.63
2018-04-10T21:04:23.243Z,2.50
2018-04-10T21:06:51.592Z,2.33
2018-04-10T21:09:19.200Z,2.47
2018-04-10T21:11:46.815Z,2.40
2018-04-10T21:14:14.407Z,2.60
2018-04-10T21:16:41.987Z,3.13
2018-04-10T21:19:09.597Z,2.67
2018-04-10T21:21:37.187Z,2.93
2018-04-10T21:24:04.795Z,4.80
2018-04-10T21:26:32.412Z,2.83
2018-04-10T21:29:00.007Z,2.67
2018-04-10T21:31:27.596Z,4.23
2018-04-10T21:33:55.194Z,3.60
2018-04-10T21:36:22.784Z,3.50
2018-04-10T21:39:07.526Z,2.77
2018-04-10T21:41:35.111Z,2.93
2018-04-10T21:44:02.719Z,3.47
2018-04-10T21:46:31.104Z,2.80
2018-04-10T21:48:59.460Z,3.13
2018-04-10T21:51:27.042Z,2.60
2018-04-10T21:53:55.421Z,2.80
2018-04-10T21:56:23.788Z,2.60
2018-04-10T21:58:52.163Z,2.30
2018-04-10T22:01:20.554Z,3.30
2018-04-10T22:03:48.912Z,2.13
2018-04-10T22:06:16.502Z,2.33
2018-04-10T22:08:44.120Z,2.23
2018-04-10T22:11:11.752Z,4.57
2018-04-10T22:13:39.336Z,3.00
2018-04-10T22:16:07.759Z,2.40
2018-04-10T22:18:35.351Z,47.30
2018-04-10T22:21:02.948Z,54.57
2018-04-10T22:23:30.571Z,26.27
2018-04-10T22:25:58.151Z,5.30
2018-04-10T22:28:25.731Z,2.10
2018-04-10T22:30:54.139Z,14.97
2018-04-10T22:33:21.751Z,25.33
2018-04-10T22:35:49.320Z,20.50
2018-04-10T22:38:17.708Z,6.20
2018-04-10T22:40:45.323Z,2.70
2018-04-10T22:43:12.914Z,1.73
2018-04-10T22:45:43.182Z,1.90
2018-04-10T22:48:10.768Z,1.90
2018-04-10T22:50:50.852Z,1.70
2018-04-10T22:53:19.248Z,2.50
2018-04-10T22:55:46.868Z,3.20
2018-04-10T22:58:18.324Z,2.40
2018-04-10T23:00:49.771Z,2.27
2018-04-10T23:03:17.412Z,2.20
2018-04-10T23:05:45.029Z,2.23
2018-04-10T23:08:12.647Z,2.33
2018-04-10T23:10:40.273Z,5.20
2018-04-10T23:13:07.877Z,2.90
2018-04-10T23:15:45.395Z,2.60
2018-04-10T23:18:13.002Z,4.30
2018-04-10T23:20:51.025Z,2.77
2018-04-10T23:23:18.608Z,2.63
2018-04-10T23:25:46.225Z,3.10
2018-04-10T23:28:13.865Z,2.70
2018-04-10T23:30:42.216Z,2.87
2018-04-10T23:33:09.807Z,4.23
2018-04-10T23:35:38.184Z,4.33
2018-04-10T23:38:06.592Z,6.00
2018-04-10T23:40:34.190Z,3.57
2018-04-10T23:43:02.408Z,3.17
2018-04-10T23:45:30.761Z,3.40
2018-04-10T23:47:58.352Z,3.97
2018-04-10T23:50:26.728Z,3.93
2018-04-10T23:52:55.078Z,3.40
2018-04-10T23:55:22.670Z,3.50
2018-04-10T23:57:50.280Z,3.40
